SBOSBO HYD / VOHS
Speedbird OnlineSpeedbird Online HYD / VOHS

Rajiv Gandhi International Airport
03:16 31°C

Location Hyderabad, India
Latitude: 17.2313175201
Longitude: 78.4298553467
Local Time 03:16 on 30 May 2024
UTC +5.5 hours (Asia/Calcutta)
Currency £1 equals INR 106.30
METAR VOHS 292030Z 25008KT 6000 SCT020 31/21 Q1005 NOSIG
TAF TAF VOHS 292000Z 2921/3006 22010KT 6000 SCT015 TEMPO 2923/3003 23006KT 5000 HZ SCT015 BECMG 3004/3006 25010KT SCT015 SCT025
Weather As Of 30 May 2024 02:30
Description Scattered clouds
Wind 15 km/h from West (250°)
Cloud Cover 40%
Precipitation Rain: none, Snow: none
Sunrise 05:41
Sunset 18:46
NOTAM 52 active NOTAM
Rotations During the last 90 days there were
82 flights from LHR
1 flights from HYD
85 flights to LHR
1 flights to HYD
Lounges Encalm Lounge, International Departures, Level E, beside Gate 23
Web Airport Website | Wikipedia
Codes IATA: HYD
ICAO: VOHS
Altitude 617 Meter / 2024 Feet
Distance 7,714 KM / 4,793 Miles
from London.
Runways
RunwayLength (m)Surface
09L3707Asphalt
09R4260Asphalt
27L4260Asphalt
27R3707Asphalt
Radio
TypeDescriptionFrequency
APP120.25
APP125.55
ATIS126.47
CONTROL-1120.95
CONTROL-2128.35
CONTROL-3129.7
DELIVERY121.62
GROUND121.62
SMC121.85
TOWER118.45
Live ATC



Support Speedbird Online

© 2017-2024 Speedbird Online